createdAt,value
2023-08-23T00:01:23.429Z,0.20
2023-08-23T00:04:09.616Z,0.30
2023-08-23T00:06:55.208Z,0.25
2023-08-23T00:09:40.906Z,0.22
2023-08-23T00:12:26.224Z,0.20
2023-08-23T00:15:11.730Z,0.60
2023-08-23T00:17:57.397Z,0.60
2023-08-23T00:20:43.389Z,0.50
2023-08-23T00:23:28.901Z,0.52
2023-08-23T00:26:15.285Z,0.30
2023-08-23T00:29:00.962Z,0.65
2023-08-23T00:31:46.752Z,0.35
2023-08-23T00:34:32.539Z,0.20
2023-08-23T00:37:18.086Z,0.20
2023-08-23T00:40:05.330Z,0.52
2023-08-23T00:42:51.428Z,0.50
2023-08-23T00:45:39.184Z,0.30
2023-08-23T00:48:25.310Z,0.50
2023-08-23T00:51:12.989Z,0.55
2023-08-23T00:53:59.559Z,0.30
2023-08-23T00:56:45.211Z,0.30
2023-08-23T00:59:32.895Z,0.35
2023-08-23T01:02:19.068Z,0.28
2023-08-23T01:05:05.299Z,0.25
2023-08-23T01:08:29.837Z,0.20
2023-08-23T01:11:32.511Z,0.70
2023-08-23T01:15:07.105Z,1.45
2023-08-23T01:17:54.104Z,0.17
2023-08-23T01:20:40.032Z,0.45
2023-08-23T01:23:29.066Z,0.40
2023-08-23T01:26:14.954Z,0.20
2023-08-23T01:29:00.330Z,0.20
2023-08-23T01:31:49.610Z,0.30
2023-08-23T01:34:45.389Z,0.10
2023-08-23T01:37:31.356Z,0.60
2023-08-23T01:40:17.949Z,0.30
2023-08-23T01:43:03.803Z,0.47
2023-08-23T01:45:50.277Z,0.22
2023-08-23T01:48:35.747Z,0.30
2023-08-23T01:51:21.193Z,0.20
2023-08-23T01:54:06.776Z,0.30
2023-08-23T01:56:52.315Z,0.40
2023-08-23T01:59:38.464Z,0.30
2023-08-23T02:02:24.383Z,0.20
2023-08-23T02:05:09.887Z,0.50
2023-08-23T02:07:55.595Z,0.40
2023-08-23T02:10:41.099Z,0.15
2023-08-23T02:13:26.845Z,0.22
2023-08-23T02:16:12.813Z,0.30
2023-08-23T02:18:58.762Z,0.13
2023-08-23T02:21:44.233Z,0.30
2023-08-23T02:24:29.659Z,0.20
2023-08-23T02:27:15.412Z,0.50
2023-08-23T02:30:01.091Z,0.38
2023-08-23T02:32:46.689Z,0.57
2023-08-23T02:35:34.837Z,0.98
2023-08-23T02:38:20.500Z,0.68
2023-08-23T02:41:06.099Z,0.57
2023-08-23T02:43:51.764Z,1.05
2023-08-23T02:46:37.134Z,0.60
2023-08-23T02:49:23.160Z,1.45
2023-08-23T02:52:08.695Z,0.32
2023-08-23T02:54:54.261Z,0.85
2023-08-23T02:57:39.986Z,0.45
2023-08-23T03:00:25.577Z,0.35
2023-08-23T03:03:11.259Z,0.30
2023-08-23T03:05:58.797Z,0.45
2023-08-23T03:08:44.551Z,0.15
2023-08-23T03:11:30.137Z,0.10
2023-08-23T03:14:15.768Z,0.10
2023-08-23T03:17:01.073Z,0.20
2023-08-23T03:19:46.717Z,0.20
2023-08-23T03:22:32.123Z,0.20
2023-08-23T03:25:17.645Z,0.30
2023-08-23T03:28:03.198Z,0.30
2023-08-23T03:30:48.981Z,0.20
2023-08-23T03:33:34.763Z,0.10
2023-08-23T03:36:20.524Z,0.20
2023-08-23T03:39:06.033Z,0.32
2023-08-23T03:41:51.412Z,0.30
2023-08-23T03:44:36.972Z,0.20
2023-08-23T03:47:22.844Z,0.30
2023-08-23T03:50:09.525Z,0.28
2023-08-23T03:52:55.320Z,0.20
2023-08-23T03:55:40.862Z,0.30
2023-08-23T03:58:26.562Z,0.30
2023-08-23T04:01:12.137Z,0.17
2023-08-23T04:03:57.794Z,0.45
2023-08-23T04:06:43.688Z,0.30
2023-08-23T04:09:29.396Z,0.40
2023-08-23T04:12:15.461Z,0.20
2023-08-23T04:15:01.804Z,0.40
2023-08-23T04:17:47.444Z,0.32
2023-08-23T04:20:33.615Z,0.30
2023-08-23T04:23:19.594Z,0.45
2023-08-23T04:26:05.073Z,0.60
2023-08-23T04:28:51.277Z,0.43
2023-08-23T04:31:37.151Z,0.30
2023-08-23T04:34:22.793Z,0.50
2023-08-23T04:37:08.987Z,0.70
2023-08-23T04:39:54.830Z,0.50
2023-08-23T04:42:40.652Z,0.45
2023-08-23T04:45:26.297Z,0.60
2023-08-23T04:48:11.823Z,0.60
2023-08-23T04:51:00.644Z,0.77
2023-08-23T04:53:46.243Z,0.73
2023-08-23T04:56:31.800Z,0.80
2023-08-23T04:59:17.517Z,0.60
2023-08-23T05:02:03.062Z,2.88
2023-08-23T05:04:51.946Z,2.60
2023-08-23T05:07:37.980Z,1.60
2023-08-23T05:10:23.669Z,2.35
2023-08-23T05:13:09.733Z,1.10
2023-08-23T05:15:59.213Z,0.90
2023-08-23T05:18:45.042Z,1.33
2023-08-23T05:21:30.867Z,0.80
2023-08-23T05:24:16.956Z,0.60
2023-08-23T05:27:03.080Z,0.88
2023-08-23T05:29:49.288Z,0.75
2023-08-23T05:32:35.812Z,0.73
2023-08-23T05:35:21.489Z,1.20
2023-08-23T05:38:07.385Z,0.40
2023-08-23T05:40:53.107Z,0.40
2023-08-23T05:43:38.787Z,0.40
2023-08-23T05:46:24.697Z,0.43
2023-08-23T05:49:10.432Z,0.40
2023-08-23T05:51:56.085Z,0.30
2023-08-23T05:54:41.743Z,0.70
2023-08-23T05:57:27.581Z,0.30
2023-08-23T06:00:14.321Z,0.20
2023-08-23T06:02:59.828Z,0.80
2023-08-23T06:05:45.924Z,0.50
2023-08-23T06:08:32.063Z,0.22
2023-08-23T06:11:17.534Z,0.30
2023-08-23T06:14:25.263Z,0.20
2023-08-23T06:17:11.151Z,0.30
2023-08-23T06:19:56.607Z,0.47
2023-08-23T06:22:42.113Z,0.10
2023-08-23T06:25:27.872Z,0.20
2023-08-23T06:28:13.410Z,0.60
2023-08-23T06:30:59.874Z,0.50
2023-08-23T06:33:45.669Z,0.50
2023-08-23T06:36:31.143Z,0.70
2023-08-23T06:39:32.604Z,0.90
2023-08-23T06:42:19.424Z,0.32
2023-08-23T06:45:07.052Z,0.40
2023-08-23T06:47:52.806Z,0.30
2023-08-23T06:50:38.812Z,0.22
2023-08-23T06:53:24.561Z,0.28
2023-08-23T06:56:12.260Z,0.30
2023-08-23T06:58:57.956Z,0.30
2023-08-23T07:01:43.580Z,0.05
2023-08-23T07:04:29.611Z,0.10
2023-08-23T07:07:15.531Z,0.20
2023-08-23T07:10:07.942Z,0.20
2023-08-23T07:13:03.604Z,0.20
2023-08-23T07:15:49.016Z,0.30
2023-08-23T07:18:34.628Z,0.15
2023-08-23T07:21:20.066Z,0.38
2023-08-23T07:24:05.992Z,0.30
2023-08-23T07:26:51.588Z,0.35
2023-08-23T07:29:37.446Z,0.15
2023-08-23T07:32:23.241Z,0.28
2023-08-23T07:35:09.608Z,0.32
2023-08-23T07:37:55.217Z,0.35
2023-08-23T07:40:40.930Z,0.25
2023-08-23T07:43:27.739Z,0.20
2023-08-23T07:46:13.255Z,0.10
2023-08-23T07:48:59.477Z,0.50
2023-08-23T07:51:45.358Z,0.10
2023-08-23T07:54:30.761Z,0.15
2023-08-23T07:57:16.290Z,0.20
2023-08-23T08:00:02.108Z,0.20
2023-08-23T08:02:47.827Z,0.43
2023-08-23T08:05:35.057Z,0.38
2023-08-23T08:08:20.812Z,0.20
2023-08-23T08:11:07.041Z,0.15
2023-08-23T08:13:52.591Z,0.20
2023-08-23T08:16:38.399Z,0.22
2023-08-23T08:19:24.294Z,0.20
2023-08-23T08:22:09.822Z,0.20
2023-08-23T08:24:55.570Z,0.28
2023-08-23T08:27:41.800Z,0.20
2023-08-23T08:30:27.585Z,0.90
2023-08-23T08:33:13.101Z,0.55
2023-08-23T08:35:59.100Z,0.20
2023-08-23T08:38:44.746Z,0.35
2023-08-23T08:41:30.323Z,0.28
2023-08-23T08:44:16.412Z,0.30
2023-08-23T08:47:02.300Z,0.80
2023-08-23T08:49:48.321Z,0.45
2023-08-23T08:52:34.135Z,0.20
2023-08-23T08:55:22.956Z,0.20
2023-08-23T08:58:10.299Z,0.40
2023-08-23T09:00:58.202Z,0.35
2023-08-23T09:03:44.619Z,0.25
2023-08-23T09:06:31.473Z,0.10
2023-08-23T09:09:17.186Z,0.28
2023-08-23T09:12:03.184Z,0.40
2023-08-23T09:14:52.199Z,0.20
2023-08-23T09:17:38.553Z,0.30
2023-08-23T09:20:25.242Z,0.10
2023-08-23T09:23:10.742Z,0.10
2023-08-23T09:25:56.851Z,0.35
2023-08-23T09:28:43.356Z,0.30
2023-08-23T09:31:29.392Z,0.60
2023-08-23T09:34:17.357Z,0.20
2023-08-23T09:37:09.954Z,0.10
2023-08-23T09:39:55.938Z,0.25
2023-08-23T09:42:43.253Z,0.30
2023-08-23T09:45:29.867Z,0.40
2023-08-23T09:48:20.114Z,0.40
2023-08-23T09:51:07.210Z,0.20
2023-08-23T09:53:57.604Z,0.30
2023-08-23T09:59:29.273Z,0.22
2023-08-23T10:02:18.406Z,0.38
2023-08-23T10:05:07.040Z,0.30
2023-08-23T10:07:54.862Z,0.32
2023-08-23T10:10:44.279Z,0.30
2023-08-23T10:13:35.815Z,0.27
2023-08-23T10:16:23.735Z,0.40
2023-08-23T10:19:09.986Z,0.25
2023-08-23T10:21:56.464Z,0.30
2023-08-23T10:24:47.351Z,0.20
2023-08-23T10:27:35.450Z,0.40
2023-08-23T10:30:29.111Z,0.82
2023-08-23T10:33:17.805Z,0.38
2023-08-23T10:36:03.491Z,0.22
2023-08-23T10:38:49.251Z,0.30
2023-08-23T10:41:35.838Z,0.20
2023-08-23T10:44:23.081Z,0.15
2023-08-23T10:47:09.168Z,0.20
2023-08-23T10:49:55.826Z,0.40
2023-08-23T10:52:41.903Z,0.30
2023-08-23T10:55:27.883Z,0.52
2023-08-23T10:58:17.998Z,0.43
2023-08-23T11:01:05.080Z,0.30
2023-08-23T11:03:51.152Z,0.55
2023-08-23T11:06:36.983Z,0.13
2023-08-23T11:09:22.785Z,0.30
2023-08-23T11:12:09.686Z,0.38
2023-08-23T11:14:57.666Z,0.30
2023-08-23T11:17:43.118Z,0.37
2023-08-23T11:20:29.382Z,0.30
2023-08-23T11:23:15.016Z,0.40
2023-08-23T11:26:00.589Z,0.30
2023-08-23T11:28:46.232Z,0.20
2023-08-23T11:31:34.803Z,0.55
2023-08-23T11:34:21.795Z,0.20
2023-08-23T11:37:11.801Z,0.50
2023-08-23T11:40:02.749Z,0.20
2023-08-23T11:42:48.941Z,0.30
2023-08-23T11:45:39.441Z,0.30
2023-08-23T11:48:25.276Z,0.30
2023-08-23T11:51:10.750Z,0.20
2023-08-23T11:53:56.704Z,0.60
2023-08-23T11:56:43.217Z,0.25
2023-08-23T11:59:28.811Z,0.20
2023-08-23T12:02:14.341Z,0.20
2023-08-23T12:05:00.224Z,0.17
2023-08-23T12:07:47.573Z,0.40
2023-08-23T12:10:33.705Z,0.20
2023-08-23T12:13:19.395Z,0.50
2023-08-23T12:16:07.366Z,0.20
2023-08-23T12:18:52.888Z,0.43
2023-08-23T12:21:38.533Z,0.50
2023-08-23T12:24:24.170Z,0.35
2023-08-23T12:27:10.632Z,0.25
2023-08-23T12:29:56.565Z,0.25
2023-08-23T12:33:08.123Z,0.38
2023-08-23T12:35:54.094Z,0.30
2023-08-23T12:38:39.451Z,0.15
2023-08-23T12:41:25.109Z,0.38
2023-08-23T12:44:10.525Z,0.30
2023-08-23T12:46:56.032Z,0.22
2023-08-23T12:49:41.835Z,0.30
2023-08-23T12:52:27.741Z,0.30
2023-08-23T12:55:16.534Z,0.20
2023-08-23T12:58:02.010Z,0.20
2023-08-23T13:00:47.964Z,0.30
2023-08-23T13:03:34.022Z,0.22
2023-08-23T13:06:20.797Z,0.25
2023-08-23T13:09:07.162Z,0.20
2023-08-23T13:11:52.809Z,0.20
2023-08-23T13:14:38.456Z,0.30
2023-08-23T13:17:24.590Z,0.10
2023-08-23T13:20:11.393Z,0.20
2023-08-23T13:22:57.933Z,0.20
2023-08-23T13:25:43.650Z,0.10
2023-08-23T13:28:29.345Z,0.20
2023-08-23T13:31:16.384Z,0.40
2023-08-23T13:34:03.569Z,0.38
2023-08-23T13:36:49.526Z,0.30
2023-08-23T13:39:36.509Z,0.20
2023-08-23T13:42:22.640Z,0.30
2023-08-23T13:45:11.176Z,0.30
2023-08-23T13:47:57.548Z,0.17
2023-08-23T13:50:43.454Z,0.30
2023-08-23T13:53:29.592Z,0.28
2023-08-23T13:56:16.413Z,0.30
2023-08-23T13:59:02.661Z,0.40
2023-08-23T14:01:48.194Z,0.45
2023-08-23T14:04:34.198Z,0.40
2023-08-23T14:07:20.203Z,0.32
2023-08-23T14:10:06.709Z,0.20
2023-08-23T14:12:52.712Z,0.32
2023-08-23T14:15:38.322Z,0.20
2023-08-23T14:18:24.360Z,0.20
2023-08-23T14:21:10.353Z,0.45
2023-08-23T14:23:55.740Z,0.20
2023-08-23T14:26:41.488Z,0.20
2023-08-23T14:29:26.962Z,0.20
2023-08-23T14:32:13.061Z,0.28
2023-08-23T14:34:58.836Z,0.20
2023-08-23T14:37:46.911Z,0.20
2023-08-23T14:40:33.009Z,0.20
2023-08-23T14:43:18.503Z,0.10
2023-08-23T14:46:04.310Z,0.20
2023-08-23T14:48:50.146Z,0.10
2023-08-23T14:51:35.605Z,0.30
2023-08-23T14:54:21.053Z,0.05
2023-08-23T14:57:06.794Z,0.40
2023-08-23T14:59:52.251Z,0.68
2023-08-23T15:02:37.971Z,0.20
2023-08-23T15:05:23.855Z,0.40
2023-08-23T15:08:11.679Z,0.20
2023-08-23T15:10:58.770Z,0.20
2023-08-23T15:13:44.645Z,0.30
2023-08-23T15:16:30.260Z,0.20
2023-08-23T15:19:21.698Z,0.10
2023-08-23T15:22:13.042Z,0.15
2023-08-23T15:24:59.142Z,0.13
2023-08-23T15:27:44.678Z,0.10
2023-08-23T15:30:34.982Z,0.20
2023-08-23T15:33:22.029Z,0.15
2023-08-23T15:36:08.194Z,0.10
2023-08-23T15:38:53.975Z,0.10
2023-08-23T15:41:43.648Z,0.10
2023-08-23T15:44:29.378Z,0.08
2023-08-23T15:47:15.360Z,0.10
2023-08-23T15:50:01.425Z,0.20
2023-08-23T15:52:47.551Z,0.10
2023-08-23T15:55:33.541Z,0.20
2023-08-23T15:58:19.193Z,0.63
2023-08-23T16:01:06.894Z,0.50
2023-08-23T16:03:56.761Z,0.57
2023-08-23T16:06:42.273Z,0.50
2023-08-23T16:09:28.201Z,0.50
2023-08-23T16:12:13.913Z,2.00
2023-08-23T16:14:59.660Z,2.47
2023-08-23T16:17:45.182Z,1.58
2023-08-23T16:20:34.202Z,1.27
2023-08-23T16:23:22.320Z,1.05
2023-08-23T16:26:10.977Z,0.60
2023-08-23T16:28:59.045Z,0.63
2023-08-23T16:31:44.810Z,1.20
2023-08-23T16:34:30.909Z,1.48
2023-08-23T16:37:16.415Z,0.77
2023-08-23T16:40:02.513Z,0.50
2023-08-23T16:42:48.641Z,0.63
2023-08-23T16:45:34.800Z,0.93
2023-08-23T16:48:20.845Z,1.10
2023-08-23T16:51:09.220Z,0.57
2023-08-23T16:53:57.573Z,0.70
2023-08-23T16:56:43.985Z,0.32
2023-08-23T16:59:30.078Z,0.20
2023-08-23T17:02:15.655Z,0.32
2023-08-23T17:05:04.000Z,0.45
2023-08-23T17:07:50.269Z,0.40
2023-08-23T17:10:36.358Z,0.40
2023-08-23T17:13:22.164Z,0.40
2023-08-23T17:16:08.310Z,0.20
2023-08-23T17:18:54.176Z,0.20
2023-08-23T17:21:39.719Z,0.15
2023-08-23T17:24:25.263Z,0.20
2023-08-23T17:27:10.707Z,0.30
2023-08-23T17:29:58.727Z,0.70
2023-08-23T17:32:44.538Z,0.50
2023-08-23T17:35:30.528Z,0.70
2023-08-23T17:38:16.277Z,0.55
2023-08-23T17:41:06.460Z,0.40
2023-08-23T17:43:52.033Z,0.40
2023-08-23T17:46:42.788Z,0.85
2023-08-23T17:52:14.850Z,0.50
2023-08-23T17:55:00.593Z,0.45
2023-08-23T17:57:46.535Z,0.77
2023-08-23T18:00:33.950Z,0.98
2023-08-23T18:03:19.668Z,0.50
2023-08-23T18:06:05.839Z,0.55
2023-08-23T18:08:51.735Z,0.63
2023-08-23T18:11:37.453Z,0.47
2023-08-23T18:14:23.240Z,0.30
2023-08-23T18:17:08.902Z,0.40
2023-08-23T18:19:54.552Z,0.47
2023-08-23T18:22:40.042Z,0.80
2023-08-23T18:25:25.777Z,0.60
2023-08-23T18:28:11.456Z,0.40
2023-08-23T18:30:57.437Z,0.80
2023-08-23T18:33:45.688Z,0.60
2023-08-23T18:36:31.694Z,0.47
2023-08-23T18:39:20.384Z,0.50
2023-08-23T18:42:08.262Z,0.80
2023-08-23T18:44:58.809Z,1.83
2023-08-23T18:47:52.181Z,1.10
2023-08-23T18:50:37.993Z,0.90
2023-08-23T18:53:23.893Z,0.80
2023-08-23T18:56:10.081Z,0.73
2023-08-23T18:58:55.733Z,0.32
2023-08-23T19:01:41.513Z,0.80
2023-08-23T19:04:28.123Z,0.35
2023-08-23T19:07:13.628Z,0.40
2023-08-23T19:10:00.164Z,0.47
2023-08-23T19:12:45.998Z,0.50
2023-08-23T19:15:31.774Z,0.73
2023-08-23T19:18:19.771Z,1.10
2023-08-23T19:21:05.508Z,0.63
2023-08-23T19:23:51.288Z,1.70
2023-08-23T19:26:37.864Z,1.08
2023-08-23T19:29:23.399Z,2.35
2023-08-23T19:32:11.766Z,2.10
2023-08-23T19:34:57.878Z,1.98
2023-08-23T19:37:46.251Z,1.77
2023-08-23T19:40:31.818Z,1.40
2023-08-23T19:43:18.016Z,1.60
2023-08-23T19:46:03.654Z,1.67
2023-08-23T19:48:49.499Z,2.38
2023-08-23T19:51:35.640Z,1.40
2023-08-23T19:54:21.624Z,0.90
2023-08-23T19:57:10.837Z,0.85
2023-08-23T19:59:59.828Z,1.20
2023-08-23T20:02:45.660Z,1.38
2023-08-23T20:05:31.586Z,1.10
2023-08-23T20:08:17.225Z,0.50
2023-08-23T20:11:03.989Z,0.93
2023-08-23T20:13:49.908Z,0.70
2023-08-23T20:16:36.253Z,0.75
2023-08-23T20:19:22.002Z,0.75
2023-08-23T20:22:07.669Z,1.15
2023-08-23T20:24:56.689Z,0.70
2023-08-23T20:27:42.605Z,1.15
2023-08-23T20:30:28.318Z,1.00
2023-08-23T20:33:14.518Z,0.73
2023-08-23T20:35:59.823Z,0.50
2023-08-23T20:38:45.513Z,0.50
2023-08-23T20:41:31.152Z,1.42
2023-08-23T20:44:17.270Z,0.88
2023-08-23T20:47:03.494Z,0.60
2023-08-23T20:49:49.201Z,1.10
2023-08-23T20:52:35.293Z,0.60
2023-08-23T20:55:20.602Z,1.15
2023-08-23T20:58:06.089Z,1.13
2023-08-23T21:01:08.763Z,0.80
2023-08-23T21:03:55.470Z,0.50
2023-08-23T21:06:41.562Z,0.80
2023-08-23T21:09:31.484Z,0.47
2023-08-23T21:12:17.435Z,0.50
2023-08-23T21:15:03.251Z,0.40
2023-08-23T21:17:49.121Z,0.60
2023-08-23T21:20:35.266Z,0.40
2023-08-23T21:23:21.264Z,0.50
2023-08-23T21:26:09.818Z,0.40
2023-08-23T21:28:55.697Z,0.40
2023-08-23T21:31:41.694Z,0.50
2023-08-23T21:34:27.685Z,0.43
2023-08-23T21:37:13.669Z,0.47
2023-08-23T21:39:59.565Z,0.40
2023-08-23T21:42:45.044Z,0.45
2023-08-23T21:45:31.193Z,0.43
2023-08-23T21:48:17.160Z,0.40
2023-08-23T21:51:06.090Z,0.80
2023-08-23T21:53:51.671Z,0.35
2023-08-23T21:56:37.254Z,0.45
2023-08-23T21:59:22.792Z,0.75
2023-08-23T22:02:12.228Z,0.50
2023-08-23T22:04:57.943Z,0.30
2023-08-23T22:07:43.544Z,0.40
2023-08-23T22:10:29.236Z,0.55
2023-08-23T22:13:15.181Z,0.43
2023-08-23T22:16:00.968Z,0.60
2023-08-23T22:18:48.568Z,0.70
2023-08-23T22:21:34.191Z,0.52
2023-08-23T22:24:20.137Z,0.70
2023-08-23T22:27:05.910Z,0.40
2023-08-23T22:29:51.690Z,0.80
2023-08-23T22:32:37.146Z,0.68
2023-08-23T22:35:23.043Z,0.95
2023-08-23T22:38:09.185Z,0.40
2023-08-23T22:40:58.363Z,0.60
2023-08-23T22:43:47.716Z,0.43
2023-08-23T22:46:36.495Z,0.40
2023-08-23T22:49:22.121Z,0.50
2023-08-23T22:52:08.069Z,0.50
2023-08-23T22:54:53.891Z,0.50
2023-08-23T22:57:41.925Z,0.50
2023-08-23T23:00:27.895Z,0.50
2023-08-23T23:03:13.804Z,0.70
2023-08-23T23:05:59.555Z,0.60
2023-08-23T23:08:45.221Z,0.20
2023-08-23T23:11:31.088Z,0.55
2023-08-23T23:14:19.683Z,0.75
2023-08-23T23:17:05.624Z,0.38
2023-08-23T23:19:51.909Z,0.40
2023-08-23T23:22:37.577Z,0.40
2023-08-23T23:25:23.280Z,0.60
2023-08-23T23:28:08.887Z,0.73
2023-08-23T23:30:54.326Z,0.60
2023-08-23T23:33:39.799Z,0.60
2023-08-23T23:36:31.279Z,0.30
2023-08-23T23:39:17.297Z,0.30
2023-08-23T23:42:02.777Z,0.28
2023-08-23T23:44:48.598Z,0.30
2023-08-23T23:47:34.439Z,0.25
2023-08-23T23:50:20.662Z,0.32
2023-08-23T23:53:06.474Z,0.22
2023-08-23T23:55:52.363Z,0.47
2023-08-23T23:58:37.976Z,0.30
